Time;durP1;ratioP1;P1;durP2;ratioP2;P2;SDS_P1;SDS_P2;PMS_P1;PMS_P2;Temp;Humidity;BMP_temperature;BMP_pressure;BME280_temperature;BME280_humidity;BME280_pressure;Samples;Min_cycle;Max_cycle;Signal;HPM_P1;HPM_P2
2022/05/15 00:00:55;;;;;;;;;;;;;;;22.87;51.12;95330.03;2054938;28;1728;-63
2022/05/15 00:01:58;;;;;;;;;;;;;;;22.88;51.37;95328.19;2067805;28;1098;-63
2022/05/15 00:03:00;;;;;;;;;;;;;;;22.88;51.30;95325.50;2089762;28;974;-63
2022/05/15 00:04:03;;;;;;;;;;;;;;;22.87;51.00;95330.03;2088252;28;1550;-67
2022/05/15 00:05:05;;;;;;;;;;;;;;;22.87;51.10;95321.19;2089586;28;1696;-63
2022/05/15 00:06:08;;;;;;;;;;;;;;;22.88;51.13;95325.50;2089821;28;1033;-63
2022/05/15 00:07:10;;;;;;;;;;;;;;;22.86;51.00;95322.25;2089510;28;1436;-63
2022/05/15 00:08:13;;;;;;;;;;;;;;;22.86;51.10;95327.59;2088902;28;1227;-62
2022/05/15 00:09:14;;;;;;;;;;;;;;;22.86;51.10;95331.09;2088258;28;1589;-59
2022/05/15 00:10:17;;;;;;;;;;;;;;;22.85;50.91;95332.16;2083146;28;1530;-58
2022/05/15 00:11:19;;;;;;;;;;;;;;;22.87;51.03;95330.03;2086611;28;1491;-63
2022/05/15 00:12:23;;;;;;;;;;;;;;;22.87;50.87;95335.41;2089125;28;1517;-68
2022/05/15 00:13:26;;;;;;;;;;;;;;;22.87;50.97;95330.03;2089020;28;1521;-63
2022/05/15 00:14:29;;;;;;;;;;;;;;;22.88;50.75;95336.22;2089312;28;1484;-63
2022/05/15 00:15:31;;;;;;;;;;;;;;;22.87;51.26;95331.91;2086329;28;1906;-61
2022/05/15 00:16:34;;;;;;;;;;;;;;;22.88;50.69;95330.88;2089848;28;1131;-64
2022/05/15 00:17:36;;;;;;;;;;;;;;;22.87;51.06;95330.03;2089891;28;1700;-72
2022/05/15 00:18:39;;;;;;;;;;;;;;;22.86;50.72;95325.75;2090628;28;1524;-64
2022/05/15 00:19:41;;;;;;;;;;;;;;;22.87;51.05;95329.22;2091506;28;1155;-64
2022/05/15 00:20:44;;;;;;;;;;;;;;;22.87;51.15;95329.22;2089583;28;1464;-63
2022/05/15 00:21:46;;;;;;;;;;;;;;;22.87;51.02;95330.03;2082510;28;1628;-63
2022/05/15 00:22:49;;;;;;;;;;;;;;;22.88;50.97;95323.66;2089823;28;1605;-64
2022/05/15 00:23:51;;;;;;;;;;;;;;;22.87;51.07;95322.00;2089728;28;1692;-62
2022/05/15 00:24:54;;;;;;;;;;;;;;;22.87;51.13;95324.69;2091270;28;1172;-63
2022/05/15 00:25:56;;;;;;;;;;;;;;;22.87;51.00;95330.03;2090530;28;1655;-63
2022/05/15 00:26:58;;;;;;;;;;;;;;;22.88;50.92;95330.88;2091157;28;1677;-63
2022/05/15 00:28:02;;;;;;;;;;;;;;;22.88;50.82;95326.34;2090298;28;1532;-62
2022/05/15 00:29:05;;;;;;;;;;;;;;;22.87;51.02;95330.03;2091136;28;1742;-63
2022/05/15 00:30:07;;;;;;;;;;;;;;;22.88;50.78;95326.34;2091356;28;1101;-63
2022/05/15 00:31:11;;;;;;;;;;;;;;;22.87;50.94;95330.03;2090287;28;1648;-63
2022/05/15 00:32:12;;;;;;;;;;;;;;;22.88;50.85;95334.38;2091263;28;1142;-63
2022/05/15 00:33:15;;;;;;;;;;;;;;;22.88;50.75;95321.00;2082424;28;1352;-62
2022/05/15 00:34:17;;;;;;;;;;;;;;;22.88;50.87;95325.50;2090015;28;1611;-63
2022/05/15 00:35:20;;;;;;;;;;;;;;;22.88;51.13;95321.00;2090528;28;2219;-62
2022/05/15 00:36:23;;;;;;;;;;;;;;;22.87;50.82;95330.03;2090178;28;1679;-63
2022/05/15 00:37:25;;;;;;;;;;;;;;;22.88;51.09;95330.88;2086614;28;1673;-63
2022/05/15 00:38:28;;;;;;;;;;;;;;;22.87;51.05;95330.03;2090556;28;1640;-62
2022/05/15 00:39:30;;;;;;;;;;;;;;;22.87;50.74;95332.72;2091258;28;1101;-63
2022/05/15 00:40:34;;;;;;;;;;;;;;;22.88;50.92;95336.22;2090481;28;1715;-62
2022/05/15 00:41:38;;;;;;;;;;;;;;;22.88;50.72;95334.38;2091059;28;1036;-63
2022/05/15 00:42:40;;;;;;;;;;;;;;;22.89;50.92;95338.69;2091267;28;1168;-63
2022/05/15 00:43:46;;;;;;;;;;;;;;;22.88;50.71;95331.72;2088903;28;1463;-62
2022/05/15 00:44:47;;;;;;;;;;;;;;;22.87;50.86;95330.03;2084811;28;1447;-62
2022/05/15 00:45:50;;;;;;;;;;;;;;;22.87;50.86;95335.41;2089817;28;1470;-64
2022/05/15 00:46:52;;;;;;;;;;;;;;;22.87;50.64;95330.03;2090751;28;1530;-63
2022/05/15 00:47:55;;;;;;;;;;;;;;;22.87;50.76;95340.75;2091053;28;1097;-62
2022/05/15 00:48:59;;;;;;;;;;;;;;;22.87;50.59;95331.91;2091459;28;1286;-62
2022/05/15 00:50:04;;;;;;;;;;;;;;;22.88;50.73;95333.53;2091265;28;1012;-62
2022/05/15 00:51:10;;;;;;;;;;;;;;;22.87;50.77;95338.09;2091241;28;1092;-62
2022/05/15 00:52:13;;;;;;;;;;;;;;;22.87;50.64;95340.75;2089635;28;1611;-62
2022/05/15 00:53:15;;;;;;;;;;;;;;;22.87;50.73;95337.28;2090407;28;1716;-62
2022/05/15 00:54:21;;;;;;;;;;;;;;;22.87;51.01;95340.75;2091212;28;1096;-63
2022/05/15 00:55:24;;;;;;;;;;;;;;;22.87;50.72;95335.41;2085914;28;1910;-63
2022/05/15 00:56:29;;;;;;;;;;;;;;;22.88;50.56;95345.09;2085731;28;1618;-62
2022/05/15 00:57:32;;;;;;;;;;;;;;;22.87;50.66;95340.75;2091028;28;1109;-62
2022/05/15 00:58:39;;;;;;;;;;;;;;;22.88;50.58;95336.22;2091383;28;993;-62
2022/05/15 00:59:45;;;;;;;;;;;;;;;22.88;50.75;95336.22;2090173;28;1508;-62
2022/05/15 01:00:48;;;;;;;;;;;;;;;22.87;50.81;95340.75;2090650;28;1191;-63
2022/05/15 01:01:50;;;;;;;;;;;;;;;22.87;50.91;95338.09;2089925;28;1562;-63
2022/05/15 01:02:55;;;;;;;;;;;;;;;22.86;50.70;95331.09;2089391;28;1635;-62
2022/05/15 01:03:57;;;;;;;;;;;;;;;22.88;50.43;95338.91;2090093;28;1514;-62
2022/05/15 01:05:00;;;;;;;;;;;;;;;22.90;50.92;95331.47;2089768;28;1524;-62
2022/05/15 01:06:01;;;;;;;;;;;;;;;22.88;50.65;95336.22;2089812;28;1526;-61
2022/05/15 01:07:05;;;;;;;;;;;;;;;22.88;50.99;95344.25;2084669;28;1450;-62
2022/05/15 01:08:07;;;;;;;;;;;;;;;22.87;50.63;95332.72;2087987;28;1673;-61
2022/05/15 01:09:10;;;;;;;;;;;;;;;22.88;50.97;95330.88;2090414;28;1735;-63
2022/05/15 01:10:13;;;;;;;;;;;;;;;22.83;50.67;95323.50;2090935;28;1116;-64
2022/05/15 01:11:18;;;;;;;;;;;;;;;22.89;51.15;95333.34;2090896;28;1152;-69
2022/05/15 01:12:21;;;;;;;;;;;;;;;22.90;51.08;95336.84;2090287;28;1370;-64
2022/05/15 01:13:24;;;;;;;;;;;;;;;22.90;50.41;95326.94;2091025;28;1116;-65
2022/05/15 01:14:27;;;;;;;;;;;;;;;22.91;50.78;95339.31;2091402;28;1013;-65
2022/05/15 01:15:31;;;;;;;;;;;;;;;22.90;50.86;95340.31;2089297;28;1608;-64
2022/05/15 01:16:34;;;;;;;;;;;;;;;22.92;51.06;95337.44;2090790;28;1983;-64
2022/05/15 01:17:36;;;;;;;;;;;;;;;22.92;50.94;95332.09;2088438;28;1475;-64
2022/05/15 01:18:39;;;;;;;;;;;;;;;22.92;50.82;95335.56;2082388;28;1472;-63
2022/05/15 01:19:43;;;;;;;;;;;;;;;22.93;51.03;95328.34;2090313;28;1466;-64
2022/05/15 01:20:45;;;;;;;;;;;;;;;22.93;50.94;95325.69;2090720;28;1634;-64
2022/05/15 01:21:53;;;;;;;;;;;;;;;22.93;51.09;95331.84;2089898;28;1823;-64
2022/05/15 01:22:56;;;;;;;;;;;;;;;22.93;51.37;95331.84;2090447;28;1117;-63
2022/05/15 01:24:00;;;;;;;;;;;;;;;22.93;51.02;95333.72;2090798;28;1527;-63
2022/05/15 01:25:03;;;;;;;;;;;;;;;22.92;50.64;95337.44;2091070;28;1156;-64
2022/05/15 01:26:05;;;;;;;;;;;;;;;22.92;50.78;95337.44;2090884;28;1021;-63
2022/05/15 01:27:09;;;;;;;;;;;;;;;22.92;50.72;95332.91;2091152;28;1045;-63
2022/05/15 01:28:13;;;;;;;;;;;;;;;22.93;50.93;95328.34;2088879;28;1398;-63
2022/05/15 01:29:17;;;;;;;;;;;;;;;22.92;51.11;95326.72;2085833;28;1589;-63
2022/05/15 01:30:19;;;;;;;;;;;;;;;22.93;51.18;95329.16;2084385;28;2011;-63
2022/05/15 01:31:21;;;;;;;;;;;;;;;22.93;50.80;95331.84;2090991;28;1301;-65
2022/05/15 01:32:23;;;;;;;;;;;;;;;22.92;50.72;95330.22;2090622;28;1603;-65
2022/05/15 01:33:27;;;;;;;;;;;;;;;22.92;50.95;95329.41;2090829;28;1060;-65
2022/05/15 01:34:28;;;;;;;;;;;;;;;22.92;50.76;95330.22;2090849;28;1114;-64
2022/05/15 01:35:31;;;;;;;;;;;;;;;22.93;50.98;95329.16;2090822;28;1101;-63
2022/05/15 01:36:39;;;;;;;;;;;;;;;22.93;50.93;95333.72;2089683;28;2000;-64
2022/05/15 01:37:43;;;;;;;;;;;;;;;22.92;51.14;95338.25;2090283;28;1620;-62
2022/05/15 01:38:45;;;;;;;;;;;;;;;22.92;51.07;95330.22;2089445;28;1700;-63
2022/05/15 01:39:48;;;;;;;;;;;;;;;22.92;50.62;95332.91;2090792;28;1172;-65
2022/05/15 01:40:50;;;;;;;;;;;;;;;22.93;51.26;95337.22;2085536;28;1485;-65
2022/05/15 01:41:52;;;;;;;;;;;;;;;22.93;51.12;95329.16;2085715;28;1220;-65
2022/05/15 01:42:54;;;;;;;;;;;;;;;22.93;50.78;95328.34;2091022;28;1021;-64
2022/05/15 01:43:57;;;;;;;;;;;;;;;22.93;51.05;95334.53;2090534;28;1152;-64
2022/05/15 01:44:59;;;;;;;;;;;;;;;22.93;50.40;95333.72;2090220;28;1168;-68
2022/05/15 01:46:02;;;;;;;;;;;;;;;22.91;51.18;95336.63;2089518;28;1497;-66
2022/05/15 01:47:05;;;;;;;;;;;;;;;22.91;51.14;95325.91;2090718;28;1168;-65
2022/05/15 01:48:07;;;;;;;;;;;;;;;22.91;51.10;95325.91;2090268;28;1692;-66
2022/05/15 01:49:10;;;;;;;;;;;;;;;22.92;50.88;95332.91;2090718;28;1205;-66
2022/05/15 01:50:13;;;;;;;;;;;;;;;22.91;51.18;95331.28;2091013;28;1510;-66
2022/05/15 01:51:17;;;;;;;;;;;;;;;22.92;50.59;95343.63;2090954;28;1021;-65
2022/05/15 01:52:18;;;;;;;;;;;;;;;22.87;50.96;95330.03;2084442;28;1119;-62
2022/05/15 01:53:23;;;;;;;;;;;;;;;22.92;50.61;95332.91;2088039;28;1052;-66
2022/05/15 01:54:24;;;;;;;;;;;;;;;22.93;50.73;95331.03;2088618;28;1704;-65
2022/05/15 01:55:27;;;;;;;;;;;;;;;22.93;50.55;95334.53;2090405;28;1691;-64
2022/05/15 01:56:29;;;;;;;;;;;;;;;22.92;50.52;95329.41;2090676;28;1993;-66
2022/05/15 01:57:32;;;;;;;;;;;;;;;22.91;50.78;95339.31;2090716;28;1036;-65
2022/05/15 01:58:34;;;;;;;;;;;;;;;22.92;50.87;95332.09;2090988;28;1121;-66
2022/05/15 01:59:38;;;;;;;;;;;;;;;22.92;50.45;95332.09;2090440;28;1303;-66
2022/05/15 02:00:40;;;;;;;;;;;;;;;22.92;50.82;95340.13;2089878;28;1445;-65
2022/05/15 02:01:43;;;;;;;;;;;;;;;22.92;50.86;95340.13;2090509;28;1616;-65
2022/05/15 02:02:45;;;;;;;;;;;;;;;22.92;51.03;95332.91;2088667;28;1500;-66
2022/05/15 02:03:48;;;;;;;;;;;;;;;22.91;50.66;95336.63;2081638;28;1644;-64
2022/05/15 02:04:50;;;;;;;;;;;;;;;22.93;50.57;95337.22;2090228;28;1535;-65
2022/05/15 02:05:53;;;;;;;;;;;;;;;22.91;50.78;95336.63;2090546;28;1040;-65
2022/05/15 02:06:55;;;;;;;;;;;;;;;22.91;50.92;95339.31;2088594;28;1633;-65
2022/05/15 02:07:57;;;;;;;;;;;;;;;22.92;50.84;95342.81;2090484;28;1671;-65
2022/05/15 02:09:02;;;;;;;;;;;;;;;22.92;50.56;95342.81;2090378;28;1733;-65
2022/05/15 02:10:04;;;;;;;;;;;;;;;22.91;50.83;95327.78;2089567;28;1778;-65
2022/05/15 02:11:07;;;;;;;;;;;;;;;22.91;50.30;95335.81;2090633;28;1073;-68
2022/05/15 02:12:09;;;;;;;;;;;;;;;22.90;50.55;95334.97;2090651;28;1099;-66
2022/05/15 02:13:13;;;;;;;;;;;;;;;22.92;50.81;95338.25;2088843;28;1552;-65
2022/05/15 02:14:14;;;;;;;;;;;;;;;22.93;50.72;95339.88;2090101;28;2292;-69
2022/05/15 02:15:17;;;;;;;;;;;;;;;22.94;50.55;95330.00;2081442;28;1120;-67
2022/05/15 02:16:19;;;;;;;;;;;;;;;22.95;50.91;95331.66;2090282;28;1282;-67
2022/05/15 02:17:22;;;;;;;;;;;;;;;22.95;50.65;95334.31;2090200;28;1926;-67
2022/05/15 02:18:24;;;;;;;;;;;;;;;22.94;50.63;95330.84;2090442;28;1112;-69
2022/05/15 02:19:27;;;;;;;;;;;;;;;22.96;50.65;95335.94;2089960;28;1521;-69
2022/05/15 02:20:29;;;;;;;;;;;;;;;22.96;50.72;95334.13;2090202;28;1368;-69
2022/05/15 02:21:32;;;;;;;;;;;;;;;22.96;50.36;95339.47;2090060;28;1099;-66
2022/05/15 02:22:33;;;;;;;;;;;;;;;22.97;50.60;95335.75;2090244;28;1178;-67
2022/05/15 02:23:36;;;;;;;;;;;;;;;22.97;50.50;95341.09;2090479;28;1039;-68
2022/05/15 02:24:39;;;;;;;;;;;;;;;22.97;50.47;95335.75;2090677;28;1116;-68
2022/05/15 02:25:42;;;;;;;;;;;;;;;22.98;50.64;95342.75;2089936;28;1653;-67
2022/05/15 02:26:44;;;;;;;;;;;;;;;22.97;50.67;95341.09;2074596;28;1604;-65
2022/05/15 02:27:47;;;;;;;;;;;;;;;22.98;50.80;95342.75;2087597;28;1518;-67
2022/05/15 02:28:49;;;;;;;;;;;;;;;22.98;50.75;95333.88;2081650;28;1153;-65
2022/05/15 02:29:52;;;;;;;;;;;;;;;22.98;50.54;95336.56;2082441;28;1084;-65
2022/05/15 02:30:54;;;;;;;;;;;;;;;22.98;50.66;95341.94;2086461;28;1405;-65
2022/05/15 02:31:56;;;;;;;;;;;;;;;22.98;50.34;95342.75;2089934;28;1597;-66
2022/05/15 02:32:58;;;;;;;;;;;;;;;22.97;50.77;95341.09;2088775;28;1527;-65
2022/05/15 02:34:01;;;;;;;;;;;;;;;22.98;50.70;95341.94;2090245;28;985;-65
2022/05/15 02:35:03;;;;;;;;;;;;;;;22.98;50.55;95341.94;2090555;28;1187;-66
2022/05/15 02:36:06;;;;;;;;;;;;;;;22.99;50.54;95348.91;2089286;28;1839;-66
2022/05/15 02:37:08;;;;;;;;;;;;;;;22.98;50.49;95348.09;2087696;28;1973;-62
2022/05/15 02:38:11;;;;;;;;;;;;;;;22.99;50.82;95344.41;2084337;28;1720;-63
2022/05/15 02:39:14;;;;;;;;;;;;;;;22.98;50.61;95348.09;2090324;28;1105;-64
2022/05/15 02:40:18;;;;;;;;;;;;;;;22.97;50.37;95346.47;2089334;28;1653;-65
2022/05/15 02:41:21;;;;;;;;;;;;;;;22.98;50.35;95348.09;2090315;28;1088;-66
2022/05/15 02:42:23;;;;;;;;;;;;;;;22.98;50.25;95353.47;2090609;28;1553;-66
2022/05/15 02:43:26;;;;;;;;;;;;;;;22.99;50.42;95349.75;2089844;28;1278;-64
2022/05/15 02:44:28;;;;;;;;;;;;;;;22.98;50.46;95353.47;2090083;28;1714;-65
2022/05/15 02:45:31;;;;;;;;;;;;;;;22.98;50.67;95352.66;2090544;28;1489;-66
2022/05/15 02:46:33;;;;;;;;;;;;;;;22.98;50.43;95350.78;2090350;28;1728;-66
2022/05/15 02:47:35;;;;;;;;;;;;;;;22.96;50.48;95350.19;2089074;28;1705;-64
2022/05/15 02:51:18;;;;;;;;;;;;;;;22.95;50.35;95359.25;2089760;28;1012;-63
2022/05/15 02:52:21;;;;;;;;;;;;;;;22.95;50.93;95361.13;2090322;28;1099;-63
2022/05/15 02:53:23;;;;;;;;;;;;;;;22.95;50.69;95353.91;2090041;28;1367;-62
2022/05/15 02:54:26;;;;;;;;;;;;;;;22.95;50.28;95358.44;2089676;28;1518;-63
2022/05/15 02:55:29;;;;;;;;;;;;;;;22.95;50.62;95358.44;2089444;28;1460;-63
2022/05/15 02:56:33;;;;;;;;;;;;;;;22.95;50.39;95359.25;2090125;28;1117;-64
2022/05/15 02:57:38;;;;;;;;;;;;;;;22.95;50.70;95358.44;2089623;28;1906;-65
2022/05/15 02:58:41;;;;;;;;;;;;;;;22.96;50.76;95358.25;2089777;28;1132;-64
2022/05/15 02:59:42;;;;;;;;;;;;;;;22.96;50.57;95363.59;2088387;28;1465;-65
2022/05/15 03:00:45;;;;;;;;;;;;;;;22.94;50.38;95363.00;2081466;28;1543;-65
2022/05/15 03:01:47;;;;;;;;;;;;;;;22.94;50.74;95363.00;2089832;28;1508;-64
2022/05/15 03:02:50;;;;;;;;;;;;;;;22.94;50.80;95362.16;2090162;28;1081;-64
2022/05/15 03:03:52;;;;;;;;;;;;;;;22.95;50.55;95363.81;2089851;28;1273;-64
2022/05/15 03:04:55;;;;;;;;;;;;;;;22.95;50.65;95358.44;2089854;28;1970;-64
2022/05/15 03:05:57;;;;;;;;;;;;;;;22.94;50.66;95376.38;2089032;28;1753;-64
2022/05/15 03:07:00;;;;;;;;;;;;;;;22.94;50.65;95371.03;2090201;28;1056;-72
2022/05/15 03:08:02;;;;;;;;;;;;;;;22.94;50.55;95367.53;2090034;28;1266;-65
2022/05/15 03:09:05;;;;;;;;;;;;;;;22.99;51.01;95371.19;2090261;28;1083;-66
2022/05/15 03:10:07;;;;;;;;;;;;;;;22.97;50.60;95365.22;2090076;28;1112;-66
2022/05/15 03:11:11;;;;;;;;;;;;;;;22.96;50.73;95368.97;2088742;28;1506;-66
2022/05/15 03:12:13;;;;;;;;;;;;;;;22.94;50.41;95371.03;2084261;28;1662;-69
2022/05/15 03:13:16;;;;;;;;;;;;;;;22.93;50.71;95377.41;2089289;28;1634;-66
2022/05/15 03:14:18;;;;;;;;;;;;;;;22.93;50.81;95377.41;2090191;28;1036;-66
2022/05/15 03:15:21;;;;;;;;;;;;;;;22.94;50.69;95370.22;2090099;28;1041;-64
2022/05/15 03:16:23;;;;;;;;;;;;;;;22.93;50.46;95376.59;2089867;28;2081;-66
2022/05/15 03:17:26;;;;;;;;;;;;;;;22.93;50.52;95377.41;2090062;28;1020;-65
2022/05/15 03:18:27;;;;;;;;;;;;;;;22.91;50.55;95371.47;2090227;28;1914;-65
2022/05/15 03:19:30;;;;;;;;;;;;;;;22.92;50.56;95375.78;2089982;28;1191;-65
2022/05/15 03:20:32;;;;;;;;;;;;;;;22.92;50.66;95381.13;2089337;28;1194;-65
2022/05/15 03:21:35;;;;;;;;;;;;;;;22.90;50.66;95377.03;2089651;28;1537;-65
2022/05/15 03:22:37;;;;;;;;;;;;;;;22.90;50.81;95372.47;2086264;28;1199;-65
2022/05/15 03:23:40;;;;;;;;;;;;;;;22.92;50.53;95372.28;2085220;28;2503;-67
2022/05/15 03:24:41;;;;;;;;;;;;;;;22.92;50.65;95375.78;2090057;28;1228;-65
2022/05/15 03:25:44;;;;;;;;;;;;;;;22.92;50.72;95372.28;2089769;28;1708;-65
2022/05/15 03:26:48;;;;;;;;;;;;;;;22.91;50.36;95374.13;2090068;28;1668;-65
2022/05/15 03:27:51;;;;;;;;;;;;;;;22.91;50.78;95379.50;2089866;28;1093;-64
2022/05/15 03:28:53;;;;;;;;;;;;;;;22.91;50.47;95376.81;2090128;28;1148;-65
2022/05/15 03:29:56;;;;;;;;;;;;;;;22.91;50.62;95379.50;2090145;28;1116;-65
2022/05/15 03:30:58;;;;;;;;;;;;;;;22.91;50.49;95379.50;2089892;28;1148;-65
2022/05/15 03:32:01;;;;;;;;;;;;;;;22.91;50.51;95379.50;2089997;28;1176;-64
2022/05/15 03:33:03;;;;;;;;;;;;;;;22.91;50.44;95379.50;2089932;28;1192;-65
2022/05/15 03:34:06;;;;;;;;;;;;;;;22.90;50.65;95380.53;2085739;28;1018;-65
2022/05/15 03:35:14;;;;;;;;;;;;;;;22.90;50.53;95383.19;2085212;28;1516;-65
2022/05/15 03:36:17;;;;;;;;;;;;;;;22.90;50.50;95380.53;2089411;28;1663;-65
2022/05/15 03:37:19;;;;;;;;;;;;;;;22.90;50.71;95380.53;2089964;28;1140;-65
2022/05/15 03:38:22;;;;;;;;;;;;;;;22.91;50.58;95384.03;2090085;28;1906;-65
2022/05/15 03:39:24;;;;;;;;;;;;;;;22.91;50.39;95382.19;2090256;28;1148;-65
2022/05/15 03:40:27;;;;;;;;;;;;;;;22.92;50.70;95385.69;2090026;28;1653;-65
2022/05/15 03:41:29;;;;;;;;;;;;;;;22.91;50.40;95384.88;2089935;28;1124;-65
2022/05/15 03:42:33;;;;;;;;;;;;;;;22.91;50.34;95384.88;2090198;28;1156;-63
2022/05/15 03:43:35;;;;;;;;;;;;;;;22.91;50.68;95382.19;2089420;28;806;-65
2022/05/15 03:44:38;;;;;;;;;;;;;;;22.91;50.52;95384.03;2090059;28;1040;-65
2022/05/15 03:45:40;;;;;;;;;;;;;;;22.91;50.30;95384.88;2084827;28;1136;-63
2022/05/15 03:46:43;;;;;;;;;;;;;;;22.91;50.59;95384.88;2086561;28;1082;-62
2022/05/15 03:47:45;;;;;;;;;;;;;;;22.90;50.40;95377.84;2089984;28;1702;-65
2022/05/15 03:48:48;;;;;;;;;;;;;;;22.90;50.57;95380.53;2089998;28;1209;-66
2022/05/15 03:49:50;;;;;;;;;;;;;;;22.90;50.31;95388.56;2089967;28;1121;-66
2022/05/15 03:50:53;;;;;;;;;;;;;;;22.90;50.46;95391.25;2089580;28;992;-65
2022/05/15 03:51:55;;;;;;;;;;;;;;;22.90;50.31;95385.88;2089963;28;1013;-67
2022/05/15 03:52:58;;;;;;;;;;;;;;;22.90;50.72;95387.75;2091283;28;1017;-65
2022/05/15 03:54:00;;;;;;;;;;;;;;;22.90;50.23;95388.56;2091344;28;1091;-66
2022/05/15 03:55:03;;;;;;;;;;;;;;;22.89;50.65;95386.94;2091720;28;1129;-65
2022/05/15 03:56:05;;;;;;;;;;;;;;;22.90;50.46;95393.91;2091590;28;1123;-66
2022/05/15 03:57:08;;;;;;;;;;;;;;;22.89;50.47;95381.56;2084612;28;1089;-67
2022/05/15 03:58:12;;;;;;;;;;;;;;;22.88;50.67;95381.78;2089746;28;1979;-62
2022/05/15 03:59:15;;;;;;;;;;;;;;;22.90;50.69;95380.53;2085801;28;1359;-65
2022/05/15 04:00:18;;;;;;;;;;;;;;;22.90;50.34;95383.19;2083619;28;1075;-67
2022/05/15 04:01:20;;;;;;;;;;;;;;;22.89;50.60;95389.59;2083847;28;1631;-66
2022/05/15 04:02:23;;;;;;;;;;;;;;;22.90;50.43;95388.56;2091225;28;1670;-65
2022/05/15 04:03:25;;;;;;;;;;;;;;;22.90;50.70;95380.53;2090864;28;1551;-65
2022/05/15 04:04:28;;;;;;;;;;;;;;;22.90;50.25;95383.19;2090978;28;1237;-65
2022/05/15 04:05:31;;;;;;;;;;;;;;;22.89;50.43;95389.59;2090481;28;1388;-65
2022/05/15 04:06:33;;;;;;;;;;;;;;;22.90;50.72;95380.53;2090683;28;1929;-65
2022/05/15 04:07:42;;;;;;;;;;;;;;;22.90;50.65;95385.88;2090797;28;1617;-66
2022/05/15 04:08:44;;;;;;;;;;;;;;;22.91;50.50;95392.91;2082473;28;1570;-66
2022/05/15 04:09:46;;;;;;;;;;;;;;;22.93;50.67;95388.13;2091233;28;1127;-66
2022/05/15 04:10:48;;;;;;;;;;;;;;;22.93;50.33;95388.13;2091586;28;1611;-63
2022/05/15 04:11:51;;;;;;;;;;;;;;;22.96;50.43;95393.06;2089147;28;1447;-64
2022/05/15 04:12:53;;;;;;;;;;;;;;;22.99;50.66;95392.63;2090762;28;1484;-64
2022/05/15 04:13:57;;;;;;;;;;;;;;;23.00;50.50;95396.94;2091348;28;1201;-64
2022/05/15 04:14:59;;;;;;;;;;;;;;;23.01;50.36;95397.75;2090474;28;1535;-64
2022/05/15 04:16:02;;;;;;;;;;;;;;;23.02;50.39;95397.56;2091118;28;1457;-64
2022/05/15 04:17:04;;;;;;;;;;;;;;;23.04;50.40;95394.66;2091100;28;1547;-64
2022/05/15 04:18:09;;;;;;;;;;;;;;;23.05;50.67;95400.81;2090704;28;1555;-64
2022/05/15 04:19:11;;;;;;;;;;;;;;;23.05;50.29;95401.66;2087631;28;1981;-62
2022/05/15 04:20:14;;;;;;;;;;;;;;;23.05;50.28;95399.00;2084949;28;1526;-64
2022/05/15 04:21:17;;;;;;;;;;;;;;;23.02;50.11;95400.25;2091732;28;1049;-65
2022/05/15 04:22:20;;;;;;;;;;;;;;;22.97;48.01;95401.94;2090704;28;1488;-65
2022/05/15 04:23:22;;;;;;;;;;;;;;;22.96;48.91;95397.59;2090844;28;1501;-65
2022/05/15 04:24:24;;;;;;;;;;;;;;;22.92;47.43;95397.22;2091205;28;2045;-64
2022/05/15 04:25:26;;;;;;;;;;;;;;;22.92;47.46;95401.75;2090441;28;1519;-65
2022/05/15 04:26:29;;;;;;;;;;;;;;;22.90;46.87;95399.28;2090974;28;1641;-66
2022/05/15 04:27:31;;;;;;;;;;;;;;;22.90;46.89;95403.81;2090719;28;1180;-65
2022/05/15 04:28:34;;;;;;;;;;;;;;;22.89;47.26;95400.31;2091123;28;1540;-66
2022/05/15 04:29:41;;;;;;;;;;;;;;;22.90;47.22;95395.78;2091280;28;1132;-66
2022/05/15 04:30:43;;;;;;;;;;;;;;;22.90;47.06;95398.47;2086213;28;1540;-65
2022/05/15 04:31:46;;;;;;;;;;;;;;;22.89;46.95;95408.38;2087079;28;1195;-66
2022/05/15 04:32:47;;;;;;;;;;;;;;;22.87;46.41;95407.75;2088714;28;2080;-66
2022/05/15 04:33:50;;;;;;;;;;;;;;;22.91;46.69;95405.47;2091625;28;1144;-66
2022/05/15 04:34:52;;;;;;;;;;;;;;;22.90;46.28;95406.50;2089818;28;1684;-65
2022/05/15 04:35:55;;;;;;;;;;;;;;;22.90;46.34;95403.81;2091372;28;1171;-66
2022/05/15 04:36:56;;;;;;;;;;;;;;;22.88;46.21;95405.88;2089832;28;1496;-66
2022/05/15 04:37:59;;;;;;;;;;;;;;;22.89;45.60;95408.38;2090397;28;1524;-66
2022/05/15 04:39:02;;;;;;;;;;;;;;;22.89;45.99;95411.03;2091590;28;1910;-65
2022/05/15 04:40:06;;;;;;;;;;;;;;;22.88;45.96;95403.22;2090426;28;1543;-66
2022/05/15 04:41:07;;;;;;;;;;;;;;;22.90;46.00;95403.81;2090965;28;1397;-66
2022/05/15 04:42:10;;;;;;;;;;;;;;;22.90;47.86;95404.63;2078150;28;1041;-67
2022/05/15 04:43:12;;;;;;;;;;;;;;;22.87;47.83;95404.25;2078014;28;1045;-67
2022/05/15 04:44:15;;;;;;;;;;;;;;;22.83;46.87;95403.88;2083541;28;1563;-67
2022/05/15 04:45:18;;;;;;;;;;;;;;;22.83;46.21;95408.41;2090605;28;1678;-67
2022/05/15 04:46:22;;;;;;;;;;;;;;;22.84;45.81;95412.72;2090944;28;1631;-70
2022/05/15 04:47:24;;;;;;;;;;;;;;;22.83;45.46;95411.09;2090249;28;1566;-68
2022/05/15 04:48:26;;;;;;;;;;;;;;;22.83;45.63;95411.09;2082929;28;1434;-67
2022/05/15 04:49:28;;;;;;;;;;;;;;;22.82;45.39;95412.13;2090664;28;1060;-67
2022/05/15 04:50:31;;;;;;;;;;;;;;;22.83;45.24;95413.78;2091054;28;1072;-64
2022/05/15 04:51:34;;;;;;;;;;;;;;;22.80;44.97;95407.00;2090033;28;1514;-68
2022/05/15 04:52:36;;;;;;;;;;;;;;;22.79;44.90;95408.00;2091076;28;1052;-68
2022/05/15 04:53:38;;;;;;;;;;;;;;;22.79;44.96;95410.69;2085490;28;1509;-68
2022/05/15 04:54:40;;;;;;;;;;;;;;;22.81;45.07;95413.16;2086776;28;1662;-66
2022/05/15 04:55:43;;;;;;;;;;;;;;;22.79;44.80;95413.38;2090175;28;1605;-67
2022/05/15 04:56:45;;;;;;;;;;;;;;;22.79;44.67;95406.16;2090097;28;1452;-67
2022/05/15 04:57:48;;;;;;;;;;;;;;;22.78;44.72;95404.50;2090045;28;1558;-68
2022/05/15 04:58:50;;;;;;;;;;;;;;;22.79;44.81;95413.38;2090940;28;1414;-67
2022/05/15 04:59:53;;;;;;;;;;;;;;;22.77;44.61;95404.75;2090378;28;1895;-67
2022/05/15 05:00:56;;;;;;;;;;;;;;;22.76;44.38;95413.81;2089117;28;1616;-66
2022/05/15 05:01:59;;;;;;;;;;;;;;;22.78;44.79;95411.72;2090954;28;1109;-67
2022/05/15 05:03:01;;;;;;;;;;;;;;;22.78;45.13;95403.69;2090857;28;1036;-67
2022/05/15 05:04:04;;;;;;;;;;;;;;;22.79;44.59;95413.38;2088171;28;1522;-66
2022/05/15 05:05:06;;;;;;;;;;;;;;;22.78;44.64;95411.72;2085364;28;1532;-67
2022/05/15 05:06:09;;;;;;;;;;;;;;;22.76;44.79;95406.59;2086399;28;1110;-67
2022/05/15 05:07:11;;;;;;;;;;;;;;;22.75;44.35;95404.13;2090605;28;1557;-67
2022/05/15 05:08:14;;;;;;;;;;;;;;;22.77;44.55;95410.09;2089675;28;1690;-67
2022/05/15 05:09:17;;;;;;;;;;;;;;;22.76;44.40;95405.75;2090091;28;1648;-65
2022/05/15 05:10:19;;;;;;;;;;;;;;;22.76;45.08;95408.44;2090228;28;2056;-68
2022/05/15 05:11:22;;;;;;;;;;;;;;;22.74;44.35;95407.84;2090050;28;1489;-66
2022/05/15 05:12:24;;;;;;;;;;;;;;;22.75;44.38;95406.81;2090531;28;962;-66
2022/05/15 05:13:27;;;;;;;;;;;;;;;22.73;44.15;95411.56;2090807;28;1063;-66
2022/05/15 05:14:28;;;;;;;;;;;;;;;22.72;44.37;95402.69;2090193;28;2206;-65
2022/05/15 05:15:31;;;;;;;;;;;;;;;22.74;44.60;95408.66;2088854;28;1837;-64
2022/05/15 05:16:34;;;;;;;;;;;;;;;22.76;44.93;95405.75;2084926;28;1060;-66
2022/05/15 05:17:37;;;;;;;;;;;;;;;22.75;44.59;95402.25;2087663;28;1703;-67
2022/05/15 05:18:40;;;;;;;;;;;;;;;22.75;44.33;95407.63;2089577;28;1445;-69
2022/05/15 05:19:43;;;;;;;;;;;;;;;22.75;44.59;95396.91;2089817;28;1913;-68
2022/05/15 05:20:47;;;;;;;;;;;;;;;22.75;44.35;95406.81;2090319;28;1588;-68
2022/05/15 05:21:49;;;;;;;;;;;;;;;22.76;44.00;95405.75;2090658;28;993;-68
2022/05/15 05:22:51;;;;;;;;;;;;;;;22.76;44.67;95403.94;2091035;28;1100;-69
2022/05/15 05:23:54;;;;;;;;;;;;;;;22.77;44.55;95405.56;2090731;28;1173;-69
2022/05/15 05:24:56;;;;;;;;;;;;;;;22.76;44.44;95408.44;2089353;28;1519;-65
2022/05/15 05:25:59;;;;;;;;;;;;;;;22.76;45.28;95413.81;2090655;28;1113;-67
2022/05/15 05:27:01;;;;;;;;;;;;;;;22.76;46.86;95411.13;2090289;28;1092;-60
2022/05/15 05:28:04;;;;;;;;;;;;;;;22.77;46.92;95410.91;2080975;28;1526;-61
2022/05/15 05:29:06;;;;;;;;;;;;;;;22.77;43.71;95407.41;2088860;28;1535;-62
2022/05/15 05:30:10;;;;;;;;;;;;;;;22.45;43.90;95404.69;2085508;28;1691;-63
2022/05/15 05:31:13;;;;;;;;;;;;;;;22.00;43.41;95412.69;2090572;28;1710;-64
2022/05/15 05:32:17;;;;;;;;;;;;;;;21.60;43.79;95410.09;2090739;28;2077;-65
2022/05/15 05:33:21;;;;;;;;;;;;;;;21.41;43.92;95405.59;2090051;28;1586;-64
2022/05/15 05:34:23;;;;;;;;;;;;;;;21.32;43.54;95406.84;2088297;28;1535;-62